sensor_id;sensor_type;location;lat;lon;timestamp;temperature;humidity
19164;DHT22;9714;51.208;4.242;2023-03-23T00:00:46;13.80;99.90
19164;DHT22;9714;51.208;4.242;2023-03-23T00:03:17;13.80;99.90
19164;DHT22;9714;51.208;4.242;2023-03-23T00:05:48;13.90;99.90
19164;DHT22;9714;51.208;4.242;2023-03-23T00:08:17;13.90;99.90
19164;DHT22;9714;51.208;4.242;2023-03-23T00:10:49;13.80;99.90
19164;DHT22;9714;51.208;4.242;2023-03-23T00:13:23;13.90;99.90
19164;DHT22;9714;51.208;4.242;2023-03-23T00:15:52;13.90;99.90
19164;DHT22;9714;51.208;4.242;2023-03-23T00:18:27;13.80;99.90
19164;DHT22;9714;51.208;4.242;2023-03-23T00:21:01;13.90;99.90
19164;DHT22;9714;51.208;4.242;2023-03-23T00:23:32;14.00;99.90
19164;DHT22;9714;51.208;4.242;2023-03-23T00:26:10;13.90;99.90
19164;DHT22;9714;51.208;4.242;2023-03-23T00:28:51;13.80;99.90
19164;DHT22;9714;51.208;4.242;2023-03-23T00:31:20;14.00;99.90
19164;DHT22;9714;51.208;4.242;2023-03-23T00:33:48;14.10;99.90
19164;DHT22;9714;51.208;4.242;2023-03-23T00:36:17;14.10;99.90
19164;DHT22;9714;51.208;4.242;2023-03-23T00:38:56;14.20;99.90
19164;DHT22;9714;51.208;4.242;2023-03-23T00:41:29;14.10;99.90
19164;DHT22;9714;51.208;4.242;2023-03-23T00:43:58;14.10;99.90
19164;DHT22;9714;51.208;4.242;2023-03-23T00:46:29;13.90;99.90
19164;DHT22;9714;51.208;4.242;2023-03-23T00:48:57;13.80;99.90
19164;DHT22;9714;51.208;4.242;2023-03-23T00:51:26;13.90;99.90
19164;DHT22;9714;51.208;4.242;2023-03-23T00:53:53;13.90;99.90
19164;DHT22;9714;51.208;4.242;2023-03-23T00:56:20;13.90;99.90
19164;DHT22;9714;51.208;4.242;2023-03-23T00:58:49;14.00;99.90
19164;DHT22;9714;51.208;4.242;2023-03-23T01:01:17;13.90;99.90
19164;DHT22;9714;51.208;4.242;2023-03-23T01:03:46;13.90;99.90
19164;DHT22;9714;51.208;4.242;2023-03-23T01:06:13;13.90;99.90
19164;DHT22;9714;51.208;4.242;2023-03-23T01:08:41;14.10;99.90
19164;DHT22;9714;51.208;4.242;2023-03-23T01:11:13;14.00;99.90
19164;DHT22;9714;51.208;4.242;2023-03-23T01:13:42;14.00;99.90
19164;DHT22;9714;51.208;4.242;2023-03-23T01:16:10;13.90;99.90
19164;DHT22;9714;51.208;4.242;2023-03-23T01:18:38;13.80;99.90
19164;DHT22;9714;51.208;4.242;2023-03-23T01:21:10;13.80;99.90
19164;DHT22;9714;51.208;4.242;2023-03-23T01:23:38;13.90;99.90
19164;DHT22;9714;51.208;4.242;2023-03-23T01:26:07;13.80;99.90
19164;DHT22;9714;51.208;4.242;2023-03-23T01:28:40;13.90;99.90
19164;DHT22;9714;51.208;4.242;2023-03-23T01:31:12;13.90;99.90
19164;DHT22;9714;51.208;4.242;2023-03-23T01:33:40;13.90;99.90
19164;DHT22;9714;51.208;4.242;2023-03-23T01:36:12;13.80;99.90
19164;DHT22;9714;51.208;4.242;2023-03-23T01:39:14;13.90;99.90
19164;DHT22;9714;51.208;4.242;2023-03-23T01:41:46;13.80;99.90
19164;DHT22;9714;51.208;4.242;2023-03-23T01:47:19;13.90;99.90
19164;DHT22;9714;51.208;4.242;2023-03-23T01:49:50;13.80;99.90
19164;DHT22;9714;51.208;4.242;2023-03-23T01:52:22;13.70;99.90
19164;DHT22;9714;51.208;4.242;2023-03-23T01:54:51;13.80;99.90
19164;DHT22;9714;51.208;4.242;2023-03-23T01:57:22;13.80;99.90
19164;DHT22;9714;51.208;4.242;2023-03-23T01:59:54;13.80;99.90
19164;DHT22;9714;51.208;4.242;2023-03-23T02:02:24;13.80;99.90
19164;DHT22;9714;51.208;4.242;2023-03-23T02:04:55;13.80;99.90
19164;DHT22;9714;51.208;4.242;2023-03-23T02:07:25;13.70;99.90
19164;DHT22;9714;51.208;4.242;2023-03-23T02:09:52;13.80;99.90
19164;DHT22;9714;51.208;4.242;2023-03-23T02:12:20;13.80;99.90
19164;DHT22;9714;51.208;4.242;2023-03-23T02:14:47;13.70;99.90
19164;DHT22;9714;51.208;4.242;2023-03-23T02:17:21;13.70;99.90
19164;DHT22;9714;51.208;4.242;2023-03-23T02:20:06;13.70;99.90
19164;DHT22;9714;51.208;4.242;2023-03-23T02:23:01;13.80;99.90
19164;DHT22;9714;51.208;4.242;2023-03-23T02:25:46;13.60;99.90
19164;DHT22;9714;51.208;4.242;2023-03-23T02:31:36;13.80;99.90
19164;DHT22;9714;51.208;4.242;2023-03-23T02:34:11;13.70;99.90
19164;DHT22;9714;51.208;4.242;2023-03-23T02:36:42;13.70;99.90
19164;DHT22;9714;51.208;4.242;2023-03-23T02:39:14;13.70;99.90
19164;DHT22;9714;51.208;4.242;2023-03-23T02:41:46;13.70;99.90
19164;DHT22;9714;51.208;4.242;2023-03-23T02:44:14;13.80;99.90
19164;DHT22;9714;51.208;4.242;2023-03-23T02:46:42;13.70;99.90
19164;DHT22;9714;51.208;4.242;2023-03-23T02:49:14;13.70;99.90
19164;DHT22;9714;51.208;4.242;2023-03-23T02:51:44;13.60;99.90
19164;DHT22;9714;51.208;4.242;2023-03-23T02:54:13;13.60;99.90
19164;DHT22;9714;51.208;4.242;2023-03-23T02:56:42;13.60;99.90
19164;DHT22;9714;51.208;4.242;2023-03-23T02:59:10;13.60;99.90
19164;DHT22;9714;51.208;4.242;2023-03-23T03:01:51;13.70;99.90
19164;DHT22;9714;51.208;4.242;2023-03-23T03:04:24;13.70;99.90
19164;DHT22;9714;51.208;4.242;2023-03-23T03:07:01;13.60;99.90
19164;DHT22;9714;51.208;4.242;2023-03-23T03:09:39;13.60;99.90
19164;DHT22;9714;51.208;4.242;2023-03-23T03:12:14;13.60;99.90
19164;DHT22;9714;51.208;4.242;2023-03-23T03:14:48;13.60;99.90
19164;DHT22;9714;51.208;4.242;2023-03-23T03:17:21;13.60;99.90
19164;DHT22;9714;51.208;4.242;2023-03-23T03:19:55;13.60;99.90
19164;DHT22;9714;51.208;4.242;2023-03-23T03:22:25;13.60;99.90
19164;DHT22;9714;51.208;4.242;2023-03-23T03:24:56;13.60;99.90
19164;DHT22;9714;51.208;4.242;2023-03-23T03:27:25;13.60;99.90
19164;DHT22;9714;51.208;4.242;2023-03-23T03:29:56;13.60;99.90
19164;DHT22;9714;51.208;4.242;2023-03-23T03:32:30;13.60;99.90
19164;DHT22;9714;51.208;4.242;2023-03-23T03:35:08;13.60;99.90
19164;DHT22;9714;51.208;4.242;2023-03-23T03:37:38;13.60;99.90
19164;DHT22;9714;51.208;4.242;2023-03-23T03:40:10;13.70;99.90
19164;DHT22;9714;51.208;4.242;2023-03-23T03:42:38;13.60;99.90
19164;DHT22;9714;51.208;4.242;2023-03-23T03:45:07;13.60;99.90
19164;DHT22;9714;51.208;4.242;2023-03-23T03:47:37;13.60;99.90
19164;DHT22;9714;51.208;4.242;2023-03-23T03:50:10;13.40;99.90
19164;DHT22;9714;51.208;4.242;2023-03-23T03:52:42;13.50;99.90
19164;DHT22;9714;51.208;4.242;2023-03-23T03:55:10;13.40;99.90
19164;DHT22;9714;51.208;4.242;2023-03-23T03:57:38;13.50;99.90
19164;DHT22;9714;51.208;4.242;2023-03-23T04:00:08;13.50;99.90
19164;DHT22;9714;51.208;4.242;2023-03-23T04:02:40;13.50;99.90
19164;DHT22;9714;51.208;4.242;2023-03-23T04:05:09;13.40;99.90
19164;DHT22;9714;51.208;4.242;2023-03-23T04:07:37;13.40;99.90
19164;DHT22;9714;51.208;4.242;2023-03-23T04:10:06;13.50;99.90
19164;DHT22;9714;51.208;4.242;2023-03-23T04:12:33;13.50;99.90
19164;DHT22;9714;51.208;4.242;2023-03-23T04:15:01;13.50;99.90
19164;DHT22;9714;51.208;4.242;2023-03-23T04:17:28;13.50;99.90
19164;DHT22;9714;51.208;4.242;2023-03-23T04:19:56;13.40;99.90
19164;DHT22;9714;51.208;4.242;2023-03-23T04:22:26;13.40;99.90
19164;DHT22;9714;51.208;4.242;2023-03-23T04:24:58;13.50;99.90
19164;DHT22;9714;51.208;4.242;2023-03-23T04:27:35;13.50;99.90
19164;DHT22;9714;51.208;4.242;2023-03-23T04:30:03;13.50;99.90
19164;DHT22;9714;51.208;4.242;2023-03-23T04:32:32;13.50;99.90
19164;DHT22;9714;51.208;4.242;2023-03-23T04:35:03;13.50;99.90
19164;DHT22;9714;51.208;4.242;2023-03-23T04:37:37;13.40;99.90
19164;DHT22;9714;51.208;4.242;2023-03-23T04:40:17;13.50;99.90
19164;DHT22;9714;51.208;4.242;2023-03-23T04:42:45;13.30;99.90
19164;DHT22;9714;51.208;4.242;2023-03-23T04:45:13;13.30;99.90
19164;DHT22;9714;51.208;4.242;2023-03-23T04:47:41;13.30;99.90
19164;DHT22;9714;51.208;4.242;2023-03-23T04:50:15;13.40;99.90
19164;DHT22;9714;51.208;4.242;2023-03-23T04:52:44;13.40;99.90
19164;DHT22;9714;51.208;4.242;2023-03-23T04:55:12;13.40;99.90
19164;DHT22;9714;51.208;4.242;2023-03-23T04:57:40;13.40;99.90
19164;DHT22;9714;51.208;4.242;2023-03-23T05:00:08;13.40;99.90
19164;DHT22;9714;51.208;4.242;2023-03-23T05:02:38;13.40;99.90
19164;DHT22;9714;51.208;4.242;2023-03-23T05:05:06;13.40;99.90
19164;DHT22;9714;51.208;4.242;2023-03-23T05:07:33;13.40;99.90
19164;DHT22;9714;51.208;4.242;2023-03-23T05:10:01;13.30;99.90
19164;DHT22;9714;51.208;4.242;2023-03-23T05:12:28;13.30;99.90
19164;DHT22;9714;51.208;4.242;2023-03-23T05:14:55;13.20;99.90
19164;DHT22;9714;51.208;4.242;2023-03-23T05:17:22;13.20;99.90
19164;DHT22;9714;51.208;4.242;2023-03-23T05:19:50;13.30;99.90
19164;DHT22;9714;51.208;4.242;2023-03-23T05:22:22;13.30;99.90
19164;DHT22;9714;51.208;4.242;2023-03-23T05:24:49;13.30;99.90
19164;DHT22;9714;51.208;4.242;2023-03-23T05:27:19;13.30;99.90
19164;DHT22;9714;51.208;4.242;2023-03-23T05:29:46;13.40;99.90
19164;DHT22;9714;51.208;4.242;2023-03-23T05:32:18;13.40;99.90
19164;DHT22;9714;51.208;4.242;2023-03-23T05:34:45;13.30;99.90
19164;DHT22;9714;51.208;4.242;2023-03-23T05:37:14;13.30;99.90
19164;DHT22;9714;51.208;4.242;2023-03-23T05:39:42;13.40;99.90
19164;DHT22;9714;51.208;4.242;2023-03-23T05:42:10;13.30;99.90
19164;DHT22;9714;51.208;4.242;2023-03-23T05:44:40;13.30;99.90
19164;DHT22;9714;51.208;4.242;2023-03-23T05:47:12;13.20;99.90
19164;DHT22;9714;51.208;4.242;2023-03-23T05:49:40;13.30;99.90
19164;DHT22;9714;51.208;4.242;2023-03-23T05:52:08;13.30;99.90
19164;DHT22;9714;51.208;4.242;2023-03-23T05:54:36;13.20;99.90
19164;DHT22;9714;51.208;4.242;2023-03-23T05:57:04;13.30;99.90
19164;DHT22;9714;51.208;4.242;2023-03-23T05:59:31;13.20;99.90
19164;DHT22;9714;51.208;4.242;2023-03-23T06:02:01;13.20;99.90
19164;DHT22;9714;51.208;4.242;2023-03-23T06:04:28;13.10;99.90
19164;DHT22;9714;51.208;4.242;2023-03-23T06:06:55;13.20;99.90
19164;DHT22;9714;51.208;4.242;2023-03-23T06:09:23;13.10;99.90
19164;DHT22;9714;51.208;4.242;2023-03-23T06:11:50;13.10;99.90
19164;DHT22;9714;51.208;4.242;2023-03-23T06:14:18;12.90;99.90
19164;DHT22;9714;51.208;4.242;2023-03-23T06:16:45;12.90;99.90
19164;DHT22;9714;51.208;4.242;2023-03-23T06:19:14;12.90;99.90
19164;DHT22;9714;51.208;4.242;2023-03-23T06:21:41;12.80;99.90
19164;DHT22;9714;51.208;4.242;2023-03-23T06:24:09;12.40;99.90
19164;DHT22;9714;51.208;4.242;2023-03-23T06:26:38;11.90;99.90
19164;DHT22;9714;51.208;4.242;2023-03-23T06:29:07;11.80;99.90
19164;DHT22;9714;51.208;4.242;2023-03-23T06:31:38;11.60;99.90
19164;DHT22;9714;51.208;4.242;2023-03-23T06:34:06;11.50;99.90
19164;DHT22;9714;51.208;4.242;2023-03-23T06:36:35;11.50;99.90
19164;DHT22;9714;51.208;4.242;2023-03-23T06:39:04;11.40;99.90
19164;DHT22;9714;51.208;4.242;2023-03-23T06:41:35;11.50;99.90
19164;DHT22;9714;51.208;4.242;2023-03-23T06:44:03;11.50;99.90
19164;DHT22;9714;51.208;4.242;2023-03-23T06:46:33;11.50;99.90
19164;DHT22;9714;51.208;4.242;2023-03-23T06:49:15;11.60;99.90
19164;DHT22;9714;51.208;4.242;2023-03-23T06:51:58;11.60;99.90
19164;DHT22;9714;51.208;4.242;2023-03-23T06:54:29;11.60;99.90
19164;DHT22;9714;51.208;4.242;2023-03-23T06:56:58;11.60;99.90
19164;DHT22;9714;51.208;4.242;2023-03-23T06:59:25;11.40;99.90
19164;DHT22;9714;51.208;4.242;2023-03-23T07:01:53;11.50;99.90
19164;DHT22;9714;51.208;4.242;2023-03-23T07:04:21;11.50;99.90
19164;DHT22;9714;51.208;4.242;2023-03-23T07:06:49;11.60;99.90
19164;DHT22;9714;51.208;4.242;2023-03-23T07:09:18;11.60;99.90
19164;DHT22;9714;51.208;4.242;2023-03-23T07:11:48;11.60;99.90
19164;DHT22;9714;51.208;4.242;2023-03-23T07:14:17;11.50;99.90
19164;DHT22;9714;51.208;4.242;2023-03-23T07:16:47;11.40;99.90
19164;DHT22;9714;51.208;4.242;2023-03-23T07:19:15;11.50;99.90
19164;DHT22;9714;51.208;4.242;2023-03-23T07:21:42;11.50;99.90
19164;DHT22;9714;51.208;4.242;2023-03-23T07:24:10;11.40;99.90
19164;DHT22;9714;51.208;4.242;2023-03-23T07:26:41;11.40;99.90
19164;DHT22;9714;51.208;4.242;2023-03-23T07:29:10;11.40;99.90
19164;DHT22;9714;51.208;4.242;2023-03-23T07:31:38;11.40;99.90
19164;DHT22;9714;51.208;4.242;2023-03-23T07:34:06;11.30;99.90
19164;DHT22;9714;51.208;4.242;2023-03-23T07:36:34;11.20;99.90
19164;DHT22;9714;51.208;4.242;2023-03-23T07:39:03;11.20;99.90
19164;DHT22;9714;51.208;4.242;2023-03-23T07:41:33;11.20;99.90
19164;DHT22;9714;51.208;4.242;2023-03-23T07:44:02;11.40;99.90
19164;DHT22;9714;51.208;4.242;2023-03-23T07:46:29;11.50;99.90
19164;DHT22;9714;51.208;4.242;2023-03-23T07:48:57;11.40;99.90
19164;DHT22;9714;51.208;4.242;2023-03-23T07:51:24;11.50;99.90
19164;DHT22;9714;51.208;4.242;2023-03-23T07:53:51;11.50;99.90
19164;DHT22;9714;51.208;4.242;2023-03-23T07:56:18;11.60;99.90
19164;DHT22;9714;51.208;4.242;2023-03-23T07:58:47;11.60;99.90
19164;DHT22;9714;51.208;4.242;2023-03-23T08:01:19;11.80;99.90
19164;DHT22;9714;51.208;4.242;2023-03-23T08:03:46;11.90;99.90
19164;DHT22;9714;51.208;4.242;2023-03-23T08:06:13;12.10;99.90
19164;DHT22;9714;51.208;4.242;2023-03-23T08:08:41;12.10;99.90
19164;DHT22;9714;51.208;4.242;2023-03-23T08:11:12;12.20;99.90
19164;DHT22;9714;51.208;4.242;2023-03-23T08:13:41;12.10;99.90
19164;DHT22;9714;51.208;4.242;2023-03-23T08:16:09;12.00;99.90
19164;DHT22;9714;51.208;4.242;2023-03-23T08:18:39;12.00;99.90
19164;DHT22;9714;51.208;4.242;2023-03-23T08:21:06;12.30;99.90
19164;DHT22;9714;51.208;4.242;2023-03-23T08:23:35;12.90;99.90
19164;DHT22;9714;51.208;4.242;2023-03-23T08:26:02;13.20;99.90
19164;DHT22;9714;51.208;4.242;2023-03-23T08:28:33;13.70;99.90
19164;DHT22;9714;51.208;4.242;2023-03-23T08:31:05;14.00;99.90
19164;DHT22;9714;51.208;4.242;2023-03-23T08:33:34;14.10;99.90
19164;DHT22;9714;51.208;4.242;2023-03-23T08:36:04;14.40;99.90
19164;DHT22;9714;51.208;4.242;2023-03-23T08:38:32;14.90;99.90
19164;DHT22;9714;51.208;4.242;2023-03-23T08:41:00;15.40;99.90
19164;DHT22;9714;51.208;4.242;2023-03-23T08:43:28;16.20;99.90
19164;DHT22;9714;51.208;4.242;2023-03-23T08:45:55;16.70;99.90
19164;DHT22;9714;51.208;4.242;2023-03-23T08:51:13;16.90;99.90
19164;DHT22;9714;51.208;4.242;2023-03-23T08:53:40;17.00;99.90
19164;DHT22;9714;51.208;4.242;2023-03-23T08:56:10;17.00;99.90
19164;DHT22;9714;51.208;4.242;2023-03-23T08:58:38;17.40;99.90
19164;DHT22;9714;51.208;4.242;2023-03-23T09:01:07;18.00;99.90
19164;DHT22;9714;51.208;4.242;2023-03-23T09:03:35;17.50;99.90
19164;DHT22;9714;51.208;4.242;2023-03-23T09:06:04;17.50;99.90
19164;DHT22;9714;51.208;4.242;2023-03-23T09:08:33;17.30;99.90
19164;DHT22;9714;51.208;4.242;2023-03-23T09:11:01;17.40;99.90
19164;DHT22;9714;51.208;4.242;2023-03-23T09:13:29;17.60;99.90
19164;DHT22;9714;51.208;4.242;2023-03-23T09:15:56;18.20;99.90
19164;DHT22;9714;51.208;4.242;2023-03-23T09:18:24;18.40;99.90
19164;DHT22;9714;51.208;4.242;2023-03-23T09:20:52;18.20;99.90
19164;DHT22;9714;51.208;4.242;2023-03-23T09:23:20;18.20;99.90
19164;DHT22;9714;51.208;4.242;2023-03-23T09:25:48;18.50;99.90
19164;DHT22;9714;51.208;4.242;2023-03-23T09:28:16;19.60;99.90
19164;DHT22;9714;51.208;4.242;2023-03-23T09:30:43;19.10;99.90
19164;DHT22;9714;51.208;4.242;2023-03-23T09:33:11;18.70;99.90
19164;DHT22;9714;51.208;4.242;2023-03-23T09:35:38;18.60;99.90
19164;DHT22;9714;51.208;4.242;2023-03-23T09:38:08;18.70;99.90
19164;DHT22;9714;51.208;4.242;2023-03-23T09:40:42;19.10;99.90
19164;DHT22;9714;51.208;4.242;2023-03-23T09:43:25;19.10;99.90
19164;DHT22;9714;51.208;4.242;2023-03-23T09:46:01;18.70;99.90
19164;DHT22;9714;51.208;4.242;2023-03-23T09:48:38;18.70;99.90
19164;DHT22;9714;51.208;4.242;2023-03-23T09:51:19;18.50;99.90
19164;DHT22;9714;51.208;4.242;2023-03-23T09:53:51;18.00;99.90
19164;DHT22;9714;51.208;4.242;2023-03-23T09:56:20;17.40;99.90
19164;DHT22;9714;51.208;4.242;2023-03-23T09:58:53;17.70;99.90
19164;DHT22;9714;51.208;4.242;2023-03-23T10:01:25;18.70;99.90
19164;DHT22;9714;51.208;4.242;2023-03-23T10:03:59;19.30;99.90
19164;DHT22;9714;51.208;4.242;2023-03-23T10:06:28;18.80;99.90
19164;DHT22;9714;51.208;4.242;2023-03-23T10:08:57;18.60;99.90
19164;DHT22;9714;51.208;4.242;2023-03-23T10:11:35;18.40;99.90
19164;DHT22;9714;51.208;4.242;2023-03-23T10:14:19;17.50;99.90
19164;DHT22;9714;51.208;4.242;2023-03-23T10:16:55;17.20;99.90
19164;DHT22;9714;51.208;4.242;2023-03-23T10:19:29;17.10;99.90
19164;DHT22;9714;51.208;4.242;2023-03-23T10:22:03;17.30;99.90
19164;DHT22;9714;51.208;4.242;2023-03-23T10:24:35;17.30;99.90
19164;DHT22;9714;51.208;4.242;2023-03-23T10:27:11;17.20;99.90
19164;DHT22;9714;51.208;4.242;2023-03-23T10:29:46;16.90;99.90
19164;DHT22;9714;51.208;4.242;2023-03-23T10:32:16;16.50;99.90
19164;DHT22;9714;51.208;4.242;2023-03-23T10:34:47;16.30;99.90
19164;DHT22;9714;51.208;4.242;2023-03-23T10:37:18;16.60;99.90
19164;DHT22;9714;51.208;4.242;2023-03-23T10:39:49;16.70;99.90
19164;DHT22;9714;51.208;4.242;2023-03-23T10:42:25;16.70;99.90
19164;DHT22;9714;51.208;4.242;2023-03-23T10:44:55;16.80;99.90
19164;DHT22;9714;51.208;4.242;2023-03-23T10:47:24;17.30;99.90
19164;DHT22;9714;51.208;4.242;2023-03-23T10:49:55;17.40;99.90
19164;DHT22;9714;51.208;4.242;2023-03-23T10:52:29;17.60;99.90
19164;DHT22;9714;51.208;4.242;2023-03-23T10:55:03;17.30;99.90
19164;DHT22;9714;51.208;4.242;2023-03-23T10:57:32;17.10;99.90
19164;DHT22;9714;51.208;4.242;2023-03-23T11:00:05;17.40;99.90
19164;DHT22;9714;51.208;4.242;2023-03-23T11:02:39;18.40;99.90
19164;DHT22;9714;51.208;4.242;2023-03-23T11:05:17;18.90;99.90
19164;DHT22;9714;51.208;4.242;2023-03-23T11:07:50;19.50;99.90
19164;DHT22;9714;51.208;4.242;2023-03-23T11:10:23;19.90;99.90
19164;DHT22;9714;51.208;4.242;2023-03-23T11:12:52;20.20;99.90
19164;DHT22;9714;51.208;4.242;2023-03-23T11:15:30;19.40;99.90
19164;DHT22;9714;51.208;4.242;2023-03-23T11:18:02;18.80;99.90
19164;DHT22;9714;51.208;4.242;2023-03-23T11:20:35;19.40;99.90
19164;DHT22;9714;51.208;4.242;2023-03-23T11:23:20;18.90;99.90
19164;DHT22;9714;51.208;4.242;2023-03-23T11:25:57;18.80;99.90
19164;DHT22;9714;51.208;4.242;2023-03-23T11:28:31;18.50;99.90
19164;DHT22;9714;51.208;4.242;2023-03-23T11:31:03;18.40;99.90
19164;DHT22;9714;51.208;4.242;2023-03-23T11:33:36;17.90;99.90
19164;DHT22;9714;51.208;4.242;2023-03-23T11:36:06;17.30;99.90
19164;DHT22;9714;51.208;4.242;2023-03-23T11:38:34;17.00;99.90
19164;DHT22;9714;51.208;4.242;2023-03-23T11:41:09;16.90;99.90
19164;DHT22;9714;51.208;4.242;2023-03-23T11:43:40;16.80;99.90
19164;DHT22;9714;51.208;4.242;2023-03-23T11:46:18;16.90;99.90
19164;DHT22;9714;51.208;4.242;2023-03-23T11:48:53;17.20;99.90
19164;DHT22;9714;51.208;4.242;2023-03-23T11:51:29;17.60;99.90
19164;DHT22;9714;51.208;4.242;2023-03-23T11:54:03;17.80;99.90
19164;DHT22;9714;51.208;4.242;2023-03-23T11:56:34;18.60;99.90
19164;DHT22;9714;51.208;4.242;2023-03-23T11:59:08;19.30;99.90
19164;DHT22;9714;51.208;4.242;2023-03-23T12:01:46;20.30;99.90
19164;DHT22;9714;51.208;4.242;2023-03-23T12:04:40;19.60;99.90
19164;DHT22;9714;51.208;4.242;2023-03-23T12:07:26;18.90;99.90
19164;DHT22;9714;51.208;4.242;2023-03-23T12:10:02;18.40;99.90
19164;DHT22;9714;51.208;4.242;2023-03-23T12:12:38;18.30;99.90
19164;DHT22;9714;51.208;4.242;2023-03-23T12:15:15;17.80;99.90
19164;DHT22;9714;51.208;4.242;2023-03-23T12:17:51;17.30;99.90
19164;DHT22;9714;51.208;4.242;2023-03-23T12:20:31;16.80;99.90
19164;DHT22;9714;51.208;4.242;2023-03-23T12:23:13;16.40;99.90
19164;DHT22;9714;51.208;4.242;2023-03-23T12:25:56;15.90;99.90
19164;DHT22;9714;51.208;4.242;2023-03-23T12:28:33;15.80;99.90
19164;DHT22;9714;51.208;4.242;2023-03-23T12:31:08;15.60;99.90
19164;DHT22;9714;51.208;4.242;2023-03-23T12:33:48;15.60;99.90
19164;DHT22;9714;51.208;4.242;2023-03-23T12:36:28;15.80;99.90
19164;DHT22;9714;51.208;4.242;2023-03-23T12:39:29;16.60;99.90
19164;DHT22;9714;51.208;4.242;2023-03-23T12:42:05;18.30;99.90
19164;DHT22;9714;51.208;4.242;2023-03-23T12:44:41;18.90;99.90
19164;DHT22;9714;51.208;4.242;2023-03-23T12:47:26;19.40;99.90
19164;DHT22;9714;51.208;4.242;2023-03-23T12:50:02;20.80;99.90
19164;DHT22;9714;51.208;4.242;2023-03-23T12:52:38;22.50;99.90
19164;DHT22;9714;51.208;4.242;2023-03-23T12:55:15;22.30;99.90
19164;DHT22;9714;51.208;4.242;2023-03-23T12:57:47;23.70;99.90
19164;DHT22;9714;51.208;4.242;2023-03-23T13:00:20;24.30;99.90
19164;DHT22;9714;51.208;4.242;2023-03-23T13:02:54;23.10;99.90
19164;DHT22;9714;51.208;4.242;2023-03-23T13:05:34;21.50;99.90
19164;DHT22;9714;51.208;4.242;2023-03-23T13:08:08;20.40;99.90
19164;DHT22;9714;51.208;4.242;2023-03-23T13:10:41;19.50;99.90
19164;DHT22;9714;51.208;4.242;2023-03-23T13:13:14;18.70;99.90
19164;DHT22;9714;51.208;4.242;2023-03-23T13:15:49;19.40;99.90
19164;DHT22;9714;51.208;4.242;2023-03-23T13:18:24;20.80;99.90
19164;DHT22;9714;51.208;4.242;2023-03-23T13:21:01;20.20;99.90
19164;DHT22;9714;51.208;4.242;2023-03-23T13:23:31;20.70;99.90
19164;DHT22;9714;51.208;4.242;2023-03-23T13:26:02;20.90;99.90
19164;DHT22;9714;51.208;4.242;2023-03-23T13:28:31;21.20;99.90
19164;DHT22;9714;51.208;4.242;2023-03-23T13:31:01;21.80;99.90
19164;DHT22;9714;51.208;4.242;2023-03-23T13:33:31;20.90;99.90
19164;DHT22;9714;51.208;4.242;2023-03-23T13:36:07;20.50;99.90
19164;DHT22;9714;51.208;4.242;2023-03-23T13:38:36;21.30;99.90
19164;DHT22;9714;51.208;4.242;2023-03-23T13:41:08;21.80;99.90
19164;DHT22;9714;51.208;4.242;2023-03-23T13:43:38;22.00;99.90
19164;DHT22;9714;51.208;4.242;2023-03-23T13:46:09;22.90;99.90
19164;DHT22;9714;51.208;4.242;2023-03-23T13:48:42;22.00;99.90
19164;DHT22;9714;51.208;4.242;2023-03-23T13:51:32;20.80;99.90
19164;DHT22;9714;51.208;4.242;2023-03-23T13:54:14;19.90;99.90
19164;DHT22;9714;51.208;4.242;2023-03-23T13:56:47;19.90;99.90
19164;DHT22;9714;51.208;4.242;2023-03-23T13:59:16;19.60;99.90
19164;DHT22;9714;51.208;4.242;2023-03-23T14:01:44;19.10;99.90
19164;DHT22;9714;51.208;4.242;2023-03-23T14:04:16;19.00;99.90
19164;DHT22;9714;51.208;4.242;2023-03-23T14:06:47;19.80;99.90
19164;DHT22;9714;51.208;4.242;2023-03-23T14:09:18;20.80;99.90
19164;DHT22;9714;51.208;4.242;2023-03-23T14:11:50;21.30;99.90
19164;DHT22;9714;51.208;4.242;2023-03-23T14:14:25;20.40;99.90
19164;DHT22;9714;51.208;4.242;2023-03-23T14:17:06;20.50;99.90
19164;DHT22;9714;51.208;4.242;2023-03-23T14:19:37;20.60;99.90
19164;DHT22;9714;51.208;4.242;2023-03-23T14:22:18;20.00;99.90
19164;DHT22;9714;51.208;4.242;2023-03-23T14:24:47;19.50;99.90
19164;DHT22;9714;51.208;4.242;2023-03-23T14:27:16;20.10;99.90
19164;DHT22;9714;51.208;4.242;2023-03-23T14:29:44;20.70;99.90
19164;DHT22;9714;51.208;4.242;2023-03-23T14:32:15;21.10;99.90
19164;DHT22;9714;51.208;4.242;2023-03-23T14:34:46;20.90;99.90
19164;DHT22;9714;51.208;4.242;2023-03-23T14:37:15;20.80;99.90
19164;DHT22;9714;51.208;4.242;2023-03-23T14:39:45;20.50;99.90
19164;DHT22;9714;51.208;4.242;2023-03-23T14:42:14;22.20;99.90
19164;DHT22;9714;51.208;4.242;2023-03-23T14:44:44;22.90;99.90
19164;DHT22;9714;51.208;4.242;2023-03-23T14:47:20;23.10;99.90
19164;DHT22;9714;51.208;4.242;2023-03-23T14:49:53;22.70;99.90
19164;DHT22;9714;51.208;4.242;2023-03-23T14:52:23;22.90;99.90
19164;DHT22;9714;51.208;4.242;2023-03-23T14:54:51;22.60;99.90
19164;DHT22;9714;51.208;4.242;2023-03-23T14:57:28;23.40;99.90
19164;DHT22;9714;51.208;4.242;2023-03-23T14:59:56;23.60;99.90
19164;DHT22;9714;51.208;4.242;2023-03-23T15:02:25;23.40;99.90
19164;DHT22;9714;51.208;4.242;2023-03-23T15:04:56;23.70;99.90
19164;DHT22;9714;51.208;4.242;2023-03-23T15:07:29;22.50;99.90
19164;DHT22;9714;51.208;4.242;2023-03-23T15:09:58;22.40;99.90
19164;DHT22;9714;51.208;4.242;2023-03-23T15:12:28;22.40;99.90
19164;DHT22;9714;51.208;4.242;2023-03-23T15:15:07;22.80;99.90
19164;DHT22;9714;51.208;4.242;2023-03-23T15:17:46;22.20;99.90
19164;DHT22;9714;51.208;4.242;2023-03-23T15:20:22;21.80;99.90
19164;DHT22;9714;51.208;4.242;2023-03-23T15:22:52;20.80;99.90
19164;DHT22;9714;51.208;4.242;2023-03-23T15:25:21;20.90;99.90
19164;DHT22;9714;51.208;4.242;2023-03-23T15:27:52;20.60;99.90
19164;DHT22;9714;51.208;4.242;2023-03-23T15:30:31;20.60;99.90
19164;DHT22;9714;51.208;4.242;2023-03-23T15:33:04;21.10;99.90
19164;DHT22;9714;51.208;4.242;2023-03-23T15:35:36;21.90;99.90
19164;DHT22;9714;51.208;4.242;2023-03-23T15:38:12;21.40;99.90
19164;DHT22;9714;51.208;4.242;2023-03-23T15:40:48;21.60;99.90
19164;DHT22;9714;51.208;4.242;2023-03-23T15:43:19;21.00;99.90
19164;DHT22;9714;51.208;4.242;2023-03-23T15:45:54;20.70;99.90
19164;DHT22;9714;51.208;4.242;2023-03-23T15:48:24;20.20;99.90
19164;DHT22;9714;51.208;4.242;2023-03-23T15:50:54;19.90;99.90
19164;DHT22;9714;51.208;4.242;2023-03-23T15:53:35;19.70;99.90
19164;DHT22;9714;51.208;4.242;2023-03-23T15:56:05;19.00;99.90
19164;DHT22;9714;51.208;4.242;2023-03-23T15:58:34;18.70;99.90
19164;DHT22;9714;51.208;4.242;2023-03-23T16:01:03;18.80;99.90
19164;DHT22;9714;51.208;4.242;2023-03-23T16:03:38;18.40;99.90
19164;DHT22;9714;51.208;4.242;2023-03-23T16:06:10;18.20;99.90
19164;DHT22;9714;51.208;4.242;2023-03-23T16:08:44;18.30;99.90
19164;DHT22;9714;51.208;4.242;2023-03-23T16:11:13;18.00;99.90
19164;DHT22;9714;51.208;4.242;2023-03-23T16:13:41;18.20;99.90
19164;DHT22;9714;51.208;4.242;2023-03-23T16:16:14;18.20;99.90
19164;DHT22;9714;51.208;4.242;2023-03-23T16:18:42;17.90;99.90
19164;DHT22;9714;51.208;4.242;2023-03-23T16:21:10;17.90;99.90